Time;durP1;ratioP1;P1;durP2;ratioP2;P2;SDS_P1;SDS_P2;PMS_P1;PMS_P2;Temp;Humidity;BMP_temperature;BMP_pressure;BME280_temperature;BME280_humidity;BME280_pressure;Samples;Min_cycle;Max_cycle;Signal;HPM_P1;HPM_P2
2022/01/19 05:44:44;;;;;;;97.22;34.95;;;-1.90;95.70;;;;;;4919137;29;20047;-93
2022/01/19 05:51:12;;;;;;;87.90;32.45;;;-1.80;95.10;;;;;;4883856;29;20477;-92
2022/01/19 05:54:07;;;;;;;120.38;41.63;;;-1.70;95.20;;;;;;4850890;29;20118;-93
2022/01/19 05:56:57;;;;;;;102.53;35.53;;;-1.70;95.20;;;;;;4864138;29;20034;-91
2022/01/19 05:59:49;;;;;;;90.80;33.10;;;-1.80;95.10;;;;;;4865973;29;20041;-93
2022/01/19 06:02:16;;;;;;;93.95;33.67;;;-1.80;95.40;;;;;;4893790;29;20176;-94
2022/01/19 06:04:42;;;;;;;113.47;39.05;;;-1.80;95.40;;;;;;4920004;29;20480;-93
2022/01/19 06:07:08;;;;;;;138.07;47.78;;;-1.80;95.30;;;;;;4903722;29;20024;-94
2022/01/19 06:12:14;;;;;;;192.63;61.63;;;-1.80;95.50;;;;;;4920510;29;20097;-94
2022/01/19 06:21:07;;;;;;;127.65;46.95;;;-2.00;95.90;;;;;;4919905;29;20440;-94
2022/01/19 06:23:56;;;;;;;189.02;63.03;;;-2.00;95.50;;;;;;4919483;29;20118;-93
2022/01/19 06:26:35;;;;;;;147.77;49.35;;;-2.00;95.80;;;;;;4919417;29;20032;-94
2022/01/19 06:29:13;;;;;;;154.98;51.80;;;-2.00;95.70;;;;;;4911612;29;20067;-95
2022/01/19 06:31:39;;;;;;;155.13;51.70;;;-2.10;95.40;;;;;;4905766;29;20047;-95
2022/01/19 06:34:09;;;;;;;183.20;57.22;;;-2.10;95.80;;;;;;4909346;29;20036;-95
2022/01/19 06:37:05;;;;;;;196.90;62.05;;;-2.00;96.00;;;;;;4907017;29;20128;-95
2022/01/19 06:39:49;;;;;;;171.90;56.45;;;-2.00;95.70;;;;;;4914439;29;20044;-96
2022/01/19 06:42:15;;;;;;;162.50;60.30;;;-1.90;95.50;;;;;;4924007;29;20035;-96
2022/01/19 06:44:44;;;;;;;155.80;56.35;;;-2.00;95.40;;;;;;4911338;29;20052;-95
2022/01/19 06:47:13;;;;;;;155.73;56.38;;;-1.90;95.60;;;;;;4926146;29;20020;-95
2022/01/19 06:49:42;;;;;;;151.93;54.78;;;-1.90;95.50;;;;;;4926241;29;20057;-95
2022/01/19 06:52:50;;;;;;;141.60;53.22;;;-1.90;95.40;;;;;;4927173;29;20095;-95
2022/01/19 06:55:22;;;;;;;147.25;51.60;;;-1.90;95.60;;;;;;4912999;29;20032;-96
2022/01/19 06:58:06;;;;;;;;;;;;;;;;;;;;;
2022/01/19 07:00:52;;;;;;;263.45;86.13;;;-1.90;95.70;;;;;;4930299;29;20092;-94
2022/01/19 07:10:02;;;;;;;256.58;85.00;;;-2.10;96.10;;;;;;4877793;29;20121;-96
2022/01/19 07:12:33;;;;;;;270.10;88.30;;;-2.00;96.20;;;;;;4913154;29;20036;-94
2022/01/19 07:15:08;;;;;;;260.55;85.18;;;-1.90;96.10;;;;;;4930174;29;20028;-95
2022/01/19 07:17:41;;;;;;;277.60;91.55;;;-1.90;96.40;;;;;;4907466;29;20044;-96
2022/01/19 07:20:18;;;;;;;248.10;84.88;;;-1.90;96.20;;;;;;4905203;29;20040;-95
2022/01/19 07:23:00;;;;;;;283.52;96.25;;;-1.90;96.60;;;;;;4894409;29;20041;-96
2022/01/19 07:25:34;;;;;;;225.50;81.05;;;-2.00;97.00;;;;;;4890058;29;20029;-93
2022/01/19 07:28:55;;;;;;;283.23;94.30;;;-1.90;96.80;;;;;;4873410;29;20076;-96
2022/01/19 07:31:27;;;;;;;240.55;82.88;;;-1.80;96.90;;;;;;4829117;29;20072;-95
2022/01/19 07:34:42;;;;;;;235.20;79.78;;;-1.70;96.90;;;;;;4859620;29;20038;-96
2022/01/19 08:51:22;;;;;;;225.95;79.55;;;0.00;99.30;;;;;;4903459;29;19947;-96
2022/01/19 13:04:39;;;;;;;24.55;10.50;;;12.40;58.70;;;;;;6278113;22;20446;-94
2022/01/19 13:11:04;;;;;;;24.67;10.10;;;12.40;60.50;;;;;;6104333;23;20154;-95
2022/01/19 13:41:14;;;;;;;31.83;14.02;;;14.00;57.70;;;;;;6060956;23;20011;-95
2022/01/19 13:44:23;;;;;;;28.08;12.27;;;14.20;56.80;;;;;;6017960;23;20037;-95
2022/01/19 14:00:54;;;;;;;36.60;15.68;;;14.40;55.50;;;;;;5977308;23;20063;-95
2022/01/19 14:03:46;;;;;;;36.40;16.23;;;14.50;54.90;;;;;;5988317;23;20262;-95
2022/01/19 14:06:53;;;;;;;80.20;29.92;;;14.60;55.40;;;;;;5961182;24;20475;-96
2022/01/19 14:09:54;;;;;;;61.47;25.35;;;14.70;55.20;;;;;;5963081;23;20012;-95
2022/01/19 14:23:11;;;;;;;;;;;;;;;;;;;;;
2022/01/19 14:26:18;;;;;;;60.95;28.40;;;15.00;55.20;;;;;;5985725;24;20083;-95
2022/01/19 14:29:33;;;;;;;44.40;21.65;;;14.90;55.50;;;;;;5962936;24;20005;-95
2022/01/19 14:32:37;;;;;;;109.38;45.80;;;14.80;54.90;;;;;;5993328;23;20004;-95
2022/01/19 14:42:42;;;;;;;154.82;68.45;;;13.50;58.90;;;;;;5948125;23;20471;-94
2022/01/19 14:45:47;;;;;;;152.18;68.13;;;13.30;59.30;;;;;;6069614;23;20029;-96
2022/01/19 14:49:00;;;;;;;164.48;70.45;;;13.10;59.60;;;;;;6127552;23;20345;-95
2022/01/19 14:55:07;;;;;;;150.55;61.65;;;12.50;60.50;;;;;;6040809;23;20011;-95
2022/01/19 14:57:43;;;;;;;164.25;62.13;;;12.40;61.30;;;;;;5989800;23;20004;-95
2022/01/19 15:00:40;;;;;;;305.67;101.38;;;12.40;61.20;;;;;;6074365;23;20001;-95
2022/01/19 15:07:13;;;;;;;351.42;119.97;;;11.50;61.80;;;;;;6180581;23;20015;-96
2022/01/19 15:10:24;;;;;;;280.75;105.38;;;10.90;63.30;;;;;;6218751;23;20445;-95
2022/01/19 15:20:07;;;;;;;;;;;;;;;;;;;;;
2022/01/19 15:23:21;;;;;;;243.55;94.15;;;9.40;66.80;;;;;;6217840;23;20079;-95
2022/01/19 15:36:02;;;;;;;;;;;;;;;;;;;;;
2022/01/19 15:38:43;;;;;;;236.85;94.15;;;7.80;70.40;;;;;;6219586;23;20079;-95
2022/01/19 15:41:23;;;;;;;241.30;92.47;;;7.60;71.00;;;;;;6218083;23;20306;-94
2022/01/19 15:50:36;;;;;;;;;;;;;;;;;;;;;
2022/01/19 15:57:15;;;;;;;191.75;76.63;;;7.40;72.00;;;;;;6220135;23;20026;-94
2022/01/19 16:03:22;;;;;;;225.55;82.20;;;7.10;71.70;;;;;;6226071;23;20296;-94
2022/01/19 16:06:12;;;;;;;214.38;77.97;;;6.90;72.80;;;;;;6228741;22;20436;-94
2022/01/19 16:09:00;;;;;;;235.45;82.03;;;6.80;72.80;;;;;;6223120;23;20011;-95
2022/01/19 16:11:46;;;;;;;211.10;79.50;;;6.80;73.10;;;;;;6224130;23;20004;-94
2022/01/19 16:14:25;;;;;;;265.05;93.40;;;6.70;73.60;;;;;;6187857;23;20000;-94
2022/01/19 16:21:07;;;;;;;252.40;89.43;;;6.50;74.10;;;;;;6228807;23;20052;-94
2022/01/19 16:53:13;;;;;;;438.42;159.40;;;5.00;77.80;;;;;;6160335;23;20009;-94
2022/01/19 16:56:14;;;;;;;407.08;144.75;;;4.70;79.10;;;;;;6190441;23;20080;-95
2022/01/19 17:02:21;;;;;;;;;;;;;;;;;;;;;
2022/01/19 17:08:51;;;;;;;329.27;111.35;;;4.50;81.10;;;;;;6091495;23;20524;-95
2022/01/19 17:12:00;;;;;;;285.55;100.18;;;4.50;80.30;;;;;;6185147;23;20381;-94
2022/01/19 17:14:40;;;;;;;268.08;94.35;;;4.50;80.10;;;;;;6164603;23;20387;-93
2022/01/19 17:18:03;;;;;;;285.08;94.03;;;4.40;80.20;;;;;;6164199;23;20005;-94
2022/01/19 17:24:20;;;;;;;218.15;80.07;;;4.20;81.00;;;;;;6187766;23;20009;-94
2022/01/19 17:36:56;;;;;;;183.50;68.18;;;4.00;81.40;;;;;;6115438;23;20033;-94
2022/01/19 17:40:16;;;;;;;198.57;70.80;;;4.10;81.50;;;;;;6162638;23;20083;-95
2022/01/19 17:53:00;;;;;;;380.23;124.30;;;3.90;83.30;;;;;;6159102;23;20124;-95
2022/01/19 17:55:49;;;;;;;421.10;133.93;;;3.80;83.20;;;;;;6177678;23;20323;-93
2022/01/19 17:58:22;;;;;;;352.27;120.15;;;3.70;83.80;;;;;;6218544;23;20007;-95
2022/01/19 18:01:16;;;;;;;321.67;104.28;;;3.70;83.80;;;;;;6217270;23;20431;-95
2022/01/19 18:04:00;;;;;;;328.52;109.32;;;3.60;83.80;;;;;;6198764;23;20009;-93
2022/01/19 18:06:32;;;;;;;304.98;101.53;;;3.50;84.20;;;;;;6218072;23;20004;-95
2022/01/19 18:09:35;;;;;;;257.80;87.65;;;3.40;84.70;;;;;;6218183;23;20040;-94
2022/01/19 18:12:06;;;;;;;229.52;75.47;;;3.20;85.20;;;;;;6199305;23;20007;-95
2022/01/19 18:14:56;;;;;;;273.27;90.22;;;3.30;85.10;;;;;;6217418;23;20330;-94
2022/01/19 18:17:57;;;;;;;;;;;;;;;;;;;;;
2022/01/19 18:20:39;;;;;;;210.25;71.50;;;3.40;85.00;;;;;;6223851;23;20036;-94
2022/01/19 18:23:22;;;;;;;230.73;79.65;;;3.40;85.10;;;;;;6225542;23;20005;-94
2022/01/19 18:26:11;;;;;;;255.70;87.72;;;3.40;84.80;;;;;;6224404;23;20488;-95
2022/01/19 18:28:55;;;;;;;272.85;90.40;;;3.30;84.90;;;;;;6223974;23;19984;-95
2022/01/19 18:31:55;;;;;;;266.58;89.35;;;3.30;85.40;;;;;;6217830;23;20428;-95
2022/01/19 18:34:36;;;;;;;236.43;83.60;;;3.20;85.60;;;;;;6218179;23;20012;-95
2022/01/19 18:37:19;;;;;;;242.35;82.57;;;3.30;85.10;;;;;;6217772;23;20009;-94
2022/01/19 18:39:50;;;;;;;264.25;88.80;;;3.30;85.00;;;;;;6219021;23;20012;-95
2022/01/19 18:42:44;;;;;;;229.05;76.00;;;3.10;85.10;;;;;;6217375;23;20001;-95
2022/01/19 18:51:34;;;;;;;258.58;87.53;;;3.20;85.00;;;;;;6187413;23;20003;-95
2022/01/19 18:54:16;;;;;;;261.63;88.00;;;3.10;86.30;;;;;;6219032;23;20004;-95
2022/01/19 18:56:50;;;;;;;294.75;95.25;;;3.20;85.80;;;;;;6218626;23;20012;-94
2022/01/19 18:59:30;;;;;;;259.27;88.27;;;3.10;85.90;;;;;;6216884;23;20008;-94
2022/01/19 19:02:24;;;;;;;268.17;93.25;;;3.10;85.70;;;;;;6192014;23;20000;-95
2022/01/19 19:05:11;;;;;;;282.33;91.80;;;3.00;85.70;;;;;;6184825;23;20016;-95
2022/01/19 19:08:00;;;;;;;239.57;81.65;;;3.00;85.90;;;;;;6187622;23;20020;-94
2022/01/19 19:13:52;;;;;;;318.38;103.65;;;2.90;86.00;;;;;;6217592;23;20015;-95
2022/01/19 19:40:17;;;;;;;256.92;87.78;;;2.40;87.70;;;;;;6159634;23;20037;-94
2022/01/19 19:43:40;;;;;;;267.33;88.90;;;2.40;87.70;;;;;;6159900;23;20002;-95
2022/01/19 19:46:44;;;;;;;223.75;78.88;;;2.30;87.90;;;;;;6128481;23;20029;-93
2022/01/19 20:08:12;;;;;;;250.45;90.32;;;2.10;88.70;;;;;;6141776;23;20016;-95
2022/01/19 20:11:06;;;;;;;259.83;93.10;;;2.10;88.50;;;;;;6134993;23;20006;-93
2022/01/19 20:13:36;;;;;;;266.63;94.50;;;2.10;88.70;;;;;;6146664;23;20053;-94
2022/01/19 20:26:16;;;;;;;298.10;99.32;;;1.70;89.50;;;;;;6012950;23;20026;-94
2022/01/19 20:28:57;;;;;;;316.80;101.30;;;1.50;90.40;;;;;;6004443;23;20003;-94
2022/01/19 20:31:45;;;;;;;287.42;95.72;;;1.40;90.50;;;;;;6075061;23;20029;-93
2022/01/19 20:34:29;;;;;;;254.50;88.53;;;1.30;90.80;;;;;;6133920;23;20013;-94
2022/01/19 20:37:00;;;;;;;243.02;82.30;;;1.30;90.90;;;;;;6099666;23;20011;-94
2022/01/19 20:40:32;;;;;;;235.30;84.30;;;1.20;90.70;;;;;;6094307;23;20009;-95
2022/01/19 20:43:10;;;;;;;240.65;79.82;;;1.20;90.70;;;;;;6100783;23;20037;-94
2022/01/19 20:45:48;;;;;;;209.57;70.50;;;1.30;90.80;;;;;;6071541;23;20062;-95
2022/01/19 20:48:18;;;;;;;207.10;69.75;;;1.40;90.60;;;;;;6071632;23;20015;-94
2022/01/19 20:57:16;;;;;;;232.25;77.70;;;1.40;90.50;;;;;;5986431;23;20011;-94
2022/01/19 21:09:41;;;;;;;233.50;78.97;;;1.10;91.10;;;;;;6071305;23;20061;-94
2022/01/19 21:12:15;;;;;;;209.70;71.30;;;1.00;91.10;;;;;;6102998;23;20088;-94
2022/01/19 21:14:52;;;;;;;224.20;74.57;;;1.00;91.20;;;;;;6105358;23;20010;-93
2022/01/19 21:20:56;;;;;;;222.85;76.32;;;1.00;91.10;;;;;;6044228;23;20022;-94
2022/01/19 21:23:35;;;;;;;;;;;;;;;;;;;;;
2022/01/19 21:26:16;;;;;;;199.43;66.70;;;1.00;90.90;;;;;;6127380;23;20033;-94
2022/01/19 21:35:40;;;;;;;213.48;73.50;;;1.00;91.20;;;;;;6141134;23;20065;-93
2022/01/19 21:38:34;;;;;;;205.90;68.43;;;0.90;91.20;;;;;;6108840;23;20034;-94
2022/01/19 21:41:10;;;;;;;200.50;69.55;;;0.90;91.20;;;;;;6114719;23;20345;-94
2022/01/19 21:43:39;;;;;;;216.25;75.20;;;0.80;91.20;;;;;;6205035;23;20008;-94
2022/01/19 21:46:15;;;;;;;199.73;68.82;;;0.80;91.10;;;;;;6224386;23;20016;-94
2022/01/19 21:48:41;;;;;;;;;;;0.70;91.20;;;;;;6219903;23;20032;-94
2022/01/19 21:51:08;;;;;;;175.90;64.45;;;0.70;91.20;;;;;;6219271;23;19975;-95
2022/01/19 21:56:59;;;;;;;218.63;75.10;;;0.50;91.70;;;;;;6218062;23;20004;-93
2022/01/19 21:59:28;;;;;;;218.95;73.82;;;0.50;91.70;;;;;;6192925;23;20031;-94
2022/01/19 22:02:19;;;;;;;211.40;70.90;;;0.50;91.50;;;;;;6193524;23;20034;-94
2022/01/19 22:11:11;;;;;;;211.65;70.32;;;0.50;91.60;;;;;;6214691;23;20043;-94
2022/01/19 22:13:55;;;;;;;;;;;;;;;;;;;;;
2022/01/19 22:16:31;;;;;;;213.98;70.20;;;0.60;91.40;;;;;;6216812;23;20088;-94
2022/01/19 22:19:31;;;;;;;229.38;75.32;;;0.50;91.40;;;;;;6191665;23;20009;-94
2022/01/19 22:22:06;;;;;;;234.32;75.40;;;0.50;91.40;;;;;;6170120;23;20000;-93
2022/01/19 22:24:49;;;;;;;243.70;80.70;;;0.40;91.60;;;;;;6192513;23;20019;-95
2022/01/19 22:43:49;;;;;;;214.30;72.78;;;-0.10;92.20;;;;;;6041378;23;20488;-94
2022/01/19 22:46:26;;;;;;;247.55;82.30;;;-0.20;92.40;;;;;;6103024;23;20064;-95
2022/01/19 22:48:53;;;;;;;186.48;62.13;;;-0.20;93.00;;;;;;6103094;23;20084;-94
2022/01/19 22:55:05;;;;;;;;;;;;;;;;;;;;;
2022/01/19 22:57:39;;;;;;;184.25;58.90;;;-0.30;92.90;;;;;;6122262;23;20073;-96
2022/01/19 23:03:46;;;;;;;207.85;64.22;;;-0.30;92.80;;;;;;6127636;23;20001;-94
2022/01/19 23:06:19;;;;;;;195.57;59.88;;;-0.30;92.70;;;;;;6185250;23;20091;-94
2022/01/19 23:08:58;;;;;;;218.52;70.38;;;-0.30;92.50;;;;;;6214167;23;20009;-94
2022/01/19 23:18:09;;;;;;;168.95;54.22;;;-0.60;93.30;;;;;;6098251;23;20060;-94
2022/01/19 23:21:07;;;;;;;160.05;51.60;;;-0.50;93.10;;;;;;6098625;23;20011;-92
2022/01/19 23:23:39;;;;;;;149.15;51.90;;;-0.50;93.10;;;;;;6052920;23;20029;-95
2022/01/19 23:29:54;;;;;;;150.18;50.70;;;-0.30;92.80;;;;;;6153171;23;20005;-94
2022/01/19 23:32:58;;;;;;;137.73;47.53;;;-0.30;92.80;;;;;;6134053;23;20021;-95
2022/01/19 23:36:10;;;;;;;152.02;49.85;;;-0.30;92.50;;;;;;6133152;23;19986;-94
2022/01/19 23:39:15;;;;;;;156.52;52.78;;;-0.30;92.60;;;;;;6132991;23;20029;-93
2022/01/19 23:48:19;;;;;;;176.38;58.50;;;-0.60;92.80;;;;;;6114286;23;20053;-95
2022/01/19 23:50:55;;;;;;;154.00;51.22;;;-0.70;93.10;;;;;;6132563;23;20324;-94
2022/01/19 23:54:00;;;;;;;140.80;49.42;;;-0.70;93.00;;;;;;6131701;23;20009;-94
